Time;durP1;ratioP1;P1;durP2;ratioP2;P2;SDS_P1;SDS_P2;PMS_P1;PMS_P2;Temp;Humidity;BMP_temperature;BMP_pressure;BME280_temperature;BME280_humidity;BME280_pressure;Samples;Min_cycle;Max_cycle;Signal;HPM_P1;HPM_P2
2022/07/26 00:02:57;;;;;;;0.57;0.20;;;25.00;55.80;;;;;;6254178;28;20037;-41
2022/07/26 00:06:00;;;;;;;0.30;0.10;;;24.90;55.70;;;;;;6256339;28;20076;-43
2022/07/26 00:09:02;;;;;;;0.20;0.15;;;24.70;55.50;;;;;;6254302;28;20152;-45
2022/07/26 00:12:05;;;;;;;0.20;0.20;;;24.60;55.60;;;;;;6238990;28;20051;-47
2022/07/26 00:15:09;;;;;;;0.20;0.10;;;25.00;55.70;;;;;;6239301;28;20071;-40
2022/07/26 00:18:15;;;;;;;0.35;0.20;;;24.90;55.70;;;;;;6254831;28;20902;-47
2022/07/26 00:21:16;;;;;;;0.40;0.20;;;24.80;55.80;;;;;;6243753;28;21127;-46
2022/07/26 00:24:18;;;;;;;0.15;0.10;;;24.90;55.70;;;;;;6259210;28;20036;-43
2022/07/26 00:27:21;;;;;;;0.10;0.10;;;24.80;56.00;;;;;;6257752;28;20074;-48
2022/07/26 00:30:27;;;;;;;0.57;0.30;;;24.90;56.00;;;;;;6259640;28;20364;-47
2022/07/26 00:33:29;;;;;;;0.20;0.20;;;24.80;56.00;;;;;;6233220;28;20195;-49
2022/07/26 00:36:31;;;;;;;0.30;0.20;;;24.70;56.00;;;;;;6224241;28;20059;-46
2022/07/26 00:39:32;;;;;;;0.75;0.20;;;24.70;56.10;;;;;;6247366;28;20810;-47
2022/07/26 00:42:35;;;;;;;0.55;0.10;;;24.80;56.10;;;;;;6248762;28;20155;-43
2022/07/26 00:45:36;;;;;;;0.30;0.20;;;24.70;55.90;;;;;;6240661;28;20467;-49
2022/07/26 00:48:38;;;;;;;0.75;0.20;;;24.70;56.00;;;;;;6239865;28;20188;-44
2022/07/26 00:51:40;;;;;;;0.47;0.20;;;24.70;56.10;;;;;;6245299;28;20070;-46
2022/07/26 00:54:45;;;;;;;0.38;0.20;;;24.90;55.90;;;;;;6232693;28;20466;-46
2022/07/26 00:57:47;;;;;;;0.80;0.20;;;24.90;56.00;;;;;;6224653;28;20145;-45
2022/07/26 01:00:49;;;;;;;0.55;0.20;;;24.80;56.10;;;;;;6241986;28;20155;-43
2022/07/26 01:03:54;;;;;;;0.43;0.20;;;24.90;56.20;;;;;;6234265;28;20545;-45
2022/07/26 01:06:56;;;;;;;0.30;0.13;;;24.90;56.10;;;;;;6229151;28;21101;-44
2022/07/26 01:09:58;;;;;;;0.90;0.15;;;25.00;55.60;;;;;;6251264;28;20567;-42
2022/07/26 01:13:00;;;;;;;0.50;0.10;;;24.60;56.00;;;;;;6240537;28;20435;-45
2022/07/26 01:16:02;;;;;;;0.10;0.10;;;24.90;56.70;;;;;;6251412;28;20517;-50
2022/07/26 01:19:04;;;;;;;0.28;0.10;;;24.60;55.90;;;;;;6230916;28;20248;-48
2022/07/26 01:22:06;;;;;;;0.20;0.20;;;24.80;56.10;;;;;;6248477;28;20592;-48
2022/07/26 01:25:15;;;;;;;0.10;0.10;;;24.80;55.90;;;;;;6196663;28;20121;-47
2022/07/26 01:28:17;;;;;;;0.38;0.20;;;24.50;55.90;;;;;;6242478;28;20439;-46
2022/07/26 01:31:21;;;;;;;0.20;0.20;;;24.40;55.80;;;;;;6250409;28;21279;-46
2022/07/26 01:34:23;;;;;;;0.22;0.20;;;24.60;56.00;;;;;;6232935;28;20079;-48
2022/07/26 01:37:25;;;;;;;0.17;0.10;;;24.70;56.10;;;;;;6244536;28;20269;-47
2022/07/26 01:40:26;;;;;;;0.20;0.10;;;24.70;56.00;;;;;;6238302;28;20036;-43
2022/07/26 01:43:28;;;;;;;0.32;0.17;;;24.40;55.90;;;;;;6244841;28;20706;-45
2022/07/26 01:46:30;;;;;;;0.30;0.15;;;24.70;56.10;;;;;;6221024;28;20056;-47
2022/07/26 01:49:31;;;;;;;0.40;0.25;;;24.80;56.20;;;;;;6244127;28;20331;-44
2022/07/26 01:52:34;;;;;;;0.15;0.10;;;24.80;56.20;;;;;;6241228;28;20064;-48
2022/07/26 01:55:36;;;;;;;0.98;0.25;;;24.80;56.10;;;;;;6220695;28;20071;-48
2022/07/26 01:58:37;;;;;;;0.28;0.20;;;24.60;56.20;;;;;;6217933;28;20188;-46
2022/07/26 02:01:39;;;;;;;1.35;0.30;;;24.60;56.20;;;;;;6248543;28;20044;-46
2022/07/26 02:07:56;;;;;;;0.52;0.22;;;24.40;56.00;;;;;;6249802;28;20141;-46
2022/07/26 02:11:00;;;;;;;0.38;0.20;;;24.80;56.20;;;;;;6228296;28;20423;-47
2022/07/26 02:14:05;;;;;;;0.30;0.20;;;24.90;56.20;;;;;;6209362;28;20428;-43
2022/07/26 02:17:07;;;;;;;0.50;0.20;;;24.60;56.30;;;;;;6241965;28;20056;-46
2022/07/26 02:20:10;;;;;;;0.20;0.17;;;24.70;56.00;;;;;;6229956;28;20870;-47
2022/07/26 02:23:12;;;;;;;0.20;0.10;;;24.70;56.10;;;;;;6213757;28;20175;-48
2022/07/26 02:26:14;;;;;;;0.22;0.20;;;24.10;55.30;;;;;;6229694;28;20072;-46
2022/07/26 02:29:15;;;;;;;0.10;0.10;;;24.90;56.50;;;;;;6242014;28;20036;-46
2022/07/26 02:32:17;;;;;;;0.63;0.28;;;24.50;56.20;;;;;;6241956;28;20307;-47
2022/07/26 02:35:19;;;;;;;0.10;0.10;;;24.50;56.20;;;;;;6206493;28;20557;-46
2022/07/26 02:38:21;;;;;;;0.45;0.20;;;24.60;56.30;;;;;;6242162;28;20078;-45
2022/07/26 02:41:23;;;;;;;0.50;0.10;;;24.60;56.30;;;;;;6236667;28;20776;-42
2022/07/26 02:44:26;;;;;;;0.57;0.13;;;24.50;56.30;;;;;;6226852;28;20318;-47
2022/07/26 02:47:27;;;;;;;0.20;0.20;;;24.80;56.30;;;;;;6242653;28;20055;-49
2022/07/26 02:50:29;;;;;;;0.35;0.20;;;24.50;56.40;;;;;;6240923;28;20134;-43
2022/07/26 02:53:31;;;;;;;0.30;0.10;;;24.60;56.40;;;;;;6227456;28;20051;-44
2022/07/26 02:56:33;;;;;;;0.93;0.25;;;24.50;56.20;;;;;;6221873;28;20472;-41
2022/07/26 02:59:35;;;;;;;0.32;0.20;;;24.70;56.50;;;;;;6241439;28;20320;-46
2022/07/26 03:02:36;;;;;;;0.47;0.20;;;24.50;56.40;;;;;;6228195;28;20140;-43
2022/07/26 03:05:38;;;;;;;0.95;0.20;;;24.60;56.50;;;;;;6226033;28;20061;-49
2022/07/26 03:08:40;;;;;;;0.75;0.10;;;24.90;56.60;;;;;;6248336;28;20426;-44
2022/07/26 03:11:42;;;;;;;0.32;0.30;;;24.50;56.20;;;;;;6245296;28;20208;-46
2022/07/26 03:14:43;;;;;;;0.20;0.13;;;24.70;56.40;;;;;;6231428;28;20159;-46
2022/07/26 03:17:45;;;;;;;0.75;0.22;;;24.60;56.60;;;;;;6246022;28;20160;-48
2022/07/26 03:20:47;;;;;;;0.17;0.10;;;24.60;56.50;;;;;;6240699;28;20059;-42
2022/07/26 03:23:49;;;;;;;0.20;0.20;;;24.80;56.50;;;;;;6237767;28;20044;-47
2022/07/26 03:26:50;;;;;;;0.43;0.20;;;24.80;56.60;;;;;;6224426;28;20080;-45
2022/07/26 03:29:52;;;;;;;0.60;0.30;;;24.60;56.60;;;;;;6248475;28;20374;-49
2022/07/26 03:32:56;;;;;;;0.70;0.32;;;24.60;56.60;;;;;;6252709;28;20291;-48
2022/07/26 03:35:58;;;;;;;1.52;0.20;;;24.80;56.70;;;;;;6248334;28;20113;-47
2022/07/26 03:39:00;;;;;;;0.98;0.50;;;24.60;56.80;;;;;;6243803;28;20166;-50
2022/07/26 03:42:01;;;;;;;2.70;0.52;;;25.10;57.00;;;;;;6242521;28;20433;-49
2022/07/26 03:45:03;;;;;;;0.98;0.30;;;24.50;56.80;;;;;;6227892;28;20985;-46
2022/07/26 03:48:05;;;;;;;1.35;0.22;;;24.40;56.60;;;;;;6245483;28;20071;-47
2022/07/26 03:51:07;;;;;;;2.13;0.45;;;24.80;56.80;;;;;;6248326;28;20255;-46
2022/07/26 03:54:09;;;;;;;0.50;0.20;;;24.40;56.80;;;;;;6249822;28;20421;-47
2022/07/26 03:57:11;;;;;;;1.40;0.35;;;24.50;56.70;;;;;;6239197;28;20604;-48
2022/07/26 04:00:13;;;;;;;;;;;24.80;56.90;;;;;;6246308;28;20118;-45
2022/07/26 04:03:15;;;;;;;0.40;0.20;;;24.80;57.20;;;;;;6242262;28;20347;-47
2022/07/26 04:06:16;;;;;;;0.10;0.10;;;24.60;56.90;;;;;;6224300;28;20407;-48
2022/07/26 04:09:19;;;;;;;0.25;0.20;;;24.70;56.90;;;;;;6240656;28;20356;-48
2022/07/26 04:12:20;;;;;;;1.95;0.20;;;24.70;56.90;;;;;;6241422;28;20467;-48
2022/07/26 04:15:22;;;;;;;0.60;0.20;;;24.70;56.90;;;;;;6223274;28;20087;-46
2022/07/26 04:18:24;;;;;;;0.50;0.38;;;24.50;56.80;;;;;;6240440;28;20429;-49
2022/07/26 04:21:26;;;;;;;0.35;0.35;;;24.80;56.90;;;;;;6248742;28;20705;-47
2022/07/26 04:24:28;;;;;;;0.68;0.20;;;24.40;56.80;;;;;;6241799;28;20419;-48
2022/07/26 04:27:29;;;;;;;1.55;0.73;;;24.70;56.80;;;;;;6246438;28;20051;-47
2022/07/26 04:30:31;;;;;;;1.65;0.25;;;24.60;56.90;;;;;;6241939;28;20147;-45
2022/07/26 04:33:33;;;;;;;0.55;0.30;;;24.70;56.90;;;;;;6228157;28;20039;-46
2022/07/26 04:36:34;;;;;;;0.45;0.20;;;24.50;56.70;;;;;;6217205;28;20380;-44
2022/07/26 04:39:36;;;;;;;0.30;0.10;;;24.50;56.80;;;;;;6245144;28;20036;-47
2022/07/26 04:42:38;;;;;;;0.20;0.10;;;24.70;56.80;;;;;;6248655;28;20379;-47
2022/07/26 04:45:39;;;;;;;1.10;0.10;;;24.70;56.80;;;;;;6238017;28;20366;-45
2022/07/26 04:48:41;;;;;;;0.30;0.10;;;24.40;56.70;;;;;;6240113;28;20160;-46
2022/07/26 04:51:43;;;;;;;0.20;0.10;;;24.70;56.70;;;;;;6238575;28;20088;-48
2022/07/26 04:54:45;;;;;;;0.20;0.15;;;24.70;56.70;;;;;;6206582;28;20220;-46
2022/07/26 04:57:47;;;;;;;1.17;0.20;;;24.70;56.70;;;;;;6238811;28;20063;-45
2022/07/26 05:00:49;;;;;;;0.45;0.20;;;24.70;56.70;;;;;;6246249;28;20472;-49
2022/07/26 05:04:13;;;;;;;0.30;0.20;;;24.60;56.60;;;;;;6218255;28;20570;-46
2022/07/26 05:07:15;;;;;;;0.30;0.10;;;24.30;56.60;;;;;;6232715;28;20181;-47
2022/07/26 05:10:18;;;;;;;0.17;0.10;;;24.40;56.50;;;;;;6253438;28;20067;-46
2022/07/26 05:13:20;;;;;;;0.28;0.10;;;24.60;56.50;;;;;;6218985;28;21016;-43
2022/07/26 05:16:31;;;;;;;0.15;0.15;;;24.60;56.60;;;;;;6239696;28;20048;-49
2022/07/26 05:19:33;;;;;;;0.10;0.10;;;24.30;56.50;;;;;;6247385;28;20032;-46
2022/07/26 05:22:36;;;;;;;0.95;0.20;;;24.70;56.70;;;;;;6254696;28;21111;-45
2022/07/26 05:25:38;;;;;;;0.50;0.20;;;25.10;56.80;;;;;;6219471;28;20136;-44
2022/07/26 05:28:40;;;;;;;0.63;0.20;;;24.90;56.80;;;;;;6231605;28;20322;-48
2022/07/26 05:31:42;;;;;;;0.10;0.10;;;24.70;56.70;;;;;;6215864;28;20047;-48
2022/07/26 05:34:43;;;;;;;0.20;0.15;;;24.60;56.60;;;;;;6223690;28;20143;-51
2022/07/26 05:37:45;;;;;;;0.10;0.10;;;24.70;56.70;;;;;;6231074;28;20118;-50
2022/07/26 05:40:47;;;;;;;0.45;0.20;;;24.60;56.70;;;;;;6228639;28;20047;-45
2022/07/26 05:43:52;;;;;;;0.10;0.10;;;24.60;56.00;;;;;;6222022;28;20145;-48
2022/07/26 05:46:53;;;;;;;0.20;0.10;;;24.40;56.40;;;;;;6208512;28;20606;-47
2022/07/26 05:49:55;;;;;;;0.32;0.10;;;24.70;56.80;;;;;;6232040;28;20288;-46
2022/07/26 05:52:56;;;;;;;0.43;0.20;;;24.40;56.70;;;;;;6232140;28;20048;-43
2022/07/26 05:55:58;;;;;;;0.13;0.10;;;24.40;56.70;;;;;;6201015;28;20056;-46
2022/07/26 05:59:03;;;;;;;0.28;0.20;;;24.60;56.80;;;;;;6203889;28;20084;-45
2022/07/26 06:02:07;;;;;;;1.00;0.20;;;24.70;57.00;;;;;;6228634;28;20147;-45
2022/07/26 06:05:09;;;;;;;0.82;0.32;;;24.70;56.90;;;;;;6231505;28;20262;-45
2022/07/26 06:08:10;;;;;;;1.13;0.20;;;24.60;56.90;;;;;;6215652;28;20373;-47
2022/07/26 06:11:12;;;;;;;1.85;0.30;;;24.80;57.20;;;;;;6214455;28;20095;-46
2022/07/26 06:14:14;;;;;;;1.63;0.30;;;24.70;57.00;;;;;;6224151;28;20118;-44
2022/07/26 06:17:16;;;;;;;1.20;0.60;;;24.90;57.20;;;;;;6224892;28;20133;-48
2022/07/26 06:20:17;;;;;;;1.98;0.50;;;24.50;57.30;;;;;;6235578;28;20137;-46
2022/07/26 06:23:19;;;;;;;3.92;0.50;;;24.50;57.30;;;;;;6216108;28;20056;-44
2022/07/26 06:26:39;;;;;;;3.83;0.60;;;24.30;57.50;;;;;;6219460;28;20052;-44
2022/07/26 06:29:41;;;;;;;5.63;1.05;;;24.70;57.70;;;;;;6227935;28;21085;-44
2022/07/26 06:32:43;;;;;;;2.05;0.60;;;24.50;57.70;;;;;;6222567;28;20043;-42
2022/07/26 06:35:44;;;;;;;1.92;0.50;;;24.40;57.60;;;;;;6224026;28;20055;-54
2022/07/26 06:38:46;;;;;;;3.45;0.50;;;24.70;58.00;;;;;;6193260;28;20044;-47
2022/07/26 06:41:53;;;;;;;2.90;0.50;;;24.20;57.80;;;;;;6219673;28;20047;-45
2022/07/26 06:44:56;;;;;;;1.13;0.43;;;24.20;58.00;;;;;;6212626;28;20997;-43
2022/07/26 06:47:58;;;;;;;3.95;0.50;;;24.40;58.00;;;;;;6203243;28;20050;-42
2022/07/26 06:50:59;;;;;;;1.90;0.50;;;24.30;58.30;;;;;;6205034;28;21925;-43
2022/07/26 06:54:01;;;;;;;2.40;0.40;;;24.30;58.10;;;;;;6204036;28;21347;-43
2022/07/26 06:57:03;;;;;;;3.05;0.50;;;24.50;58.20;;;;;;6167748;28;20032;-42
2022/07/26 07:00:07;;;;;;;2.05;0.40;;;24.40;58.00;;;;;;6172562;28;20047;-44
2022/07/26 07:03:08;;;;;;;1.98;0.65;;;24.20;57.80;;;;;;6160553;28;20071;-44
2022/07/26 07:06:10;;;;;;;1.58;0.22;;;24.50;57.70;;;;;;6155065;28;20052;-44
2022/07/26 07:09:12;;;;;;;2.78;0.47;;;24.60;58.00;;;;;;6156549;28;20040;-44
2022/07/26 07:12:14;;;;;;;2.05;0.47;;;24.30;57.50;;;;;;6177552;28;20064;-44
2022/07/26 07:15:16;;;;;;;1.85;0.40;;;24.70;58.00;;;;;;6146784;28;20036;-42
2022/07/26 07:18:18;;;;;;;2.20;0.35;;;25.00;57.80;;;;;;6108965;28;20036;-44
2022/07/26 07:21:19;;;;;;;0.20;0.20;;;24.20;58.10;;;;;;6106797;28;23437;-45
2022/07/26 07:24:22;;;;;;;0.93;0.20;;;24.50;57.90;;;;;;6121040;28;20092;-45
2022/07/26 07:27:25;;;;;;;0.88;0.20;;;24.50;58.00;;;;;;6113417;28;29453;-44
2022/07/26 07:30:28;;;;;;;0.73;0.30;;;24.80;58.20;;;;;;6063735;28;29266;-43
2022/07/26 07:33:30;;;;;;;1.35;0.30;;;24.70;58.40;;;;;;6111705;28;20047;-42
2022/07/26 07:36:38;;;;;;;2.40;0.25;;;24.50;58.00;;;;;;6106207;28;22165;-42
2022/07/26 07:39:40;;;;;;;0.80;0.20;;;24.70;58.30;;;;;;6113283;28;20055;-42
2022/07/26 07:42:43;;;;;;;1.85;0.38;;;24.60;58.10;;;;;;6132802;28;20053;-43
2022/07/26 07:45:44;;;;;;;0.65;0.30;;;24.70;58.10;;;;;;6134643;28;20044;-43
2022/07/26 07:48:50;;;;;;;4.78;0.40;;;24.80;58.00;;;;;;6110180;28;29991;-43
2022/07/26 07:51:51;;;;;;;1.52;0.50;;;24.90;58.30;;;;;;6135077;28;20059;-46
2022/07/26 07:54:53;;;;;;;0.85;0.30;;;24.90;58.10;;;;;;6122034;28;20050;-44
2022/07/26 07:58:16;;;;;;;1.13;0.28;;;24.50;58.00;;;;;;6093654;28;20044;-44
2022/07/26 08:01:20;;;;;;;0.45;0.20;;;24.90;57.40;;;;;;6111812;28;21079;-42
2022/07/26 08:04:22;;;;;;;0.60;0.30;;;24.90;57.80;;;;;;6088111;28;20192;-43
2022/07/26 08:07:24;;;;;;;0.60;0.20;;;24.90;56.20;;;;;;6110406;28;20149;-44
2022/07/26 08:10:34;;;;;;;0.75;0.30;;;24.60;58.00;;;;;;6117782;28;23909;-44
2022/07/26 08:13:43;;;;;;;1.17;0.20;;;25.00;57.50;;;;;;6111688;28;29021;-45
2022/07/26 08:16:49;;;;;;;1.75;0.47;;;24.80;57.40;;;;;;6100737;28;20048;-42
2022/07/26 08:19:51;;;;;;;1.50;0.22;;;24.90;57.20;;;;;;6126257;28;21195;-45
2022/07/26 08:22:52;;;;;;;0.65;0.45;;;25.00;57.60;;;;;;6117320;28;20040;-42
2022/07/26 08:25:54;;;;;;;0.43;0.17;;;25.30;57.50;;;;;;6104068;28;21375;-47
2022/07/26 08:29:01;;;;;;;0.15;0.13;;;25.10;57.10;;;;;;6108744;28;22128;-43
2022/07/26 08:32:03;;;;;;;1.35;0.55;;;25.30;57.20;;;;;;6122683;28;22065;-42
2022/07/26 08:35:05;;;;;;;1.75;0.43;;;25.20;56.60;;;;;;6118127;28;21297;-43
2022/07/26 08:38:20;;;;;;;0.40;0.20;;;24.70;56.80;;;;;;6123228;28;20040;-45
2022/07/26 08:41:22;;;;;;;0.47;0.20;;;25.10;57.10;;;;;;6096054;28;20052;-46
2022/07/26 08:44:25;;;;;;;1.08;0.20;;;25.00;56.70;;;;;;6100258;28;25053;-44
2022/07/26 08:47:28;;;;;;;0.40;0.20;;;24.90;56.40;;;;;;6111845;28;20155;-44
2022/07/26 08:50:41;;;;;;;0.60;0.20;;;25.60;56.50;;;;;;6096467;28;22206;-47
2022/07/26 08:53:43;;;;;;;0.82;0.20;;;25.00;55.90;;;;;;6095674;28;21360;-42
2022/07/26 08:56:49;;;;;;;1.20;0.30;;;25.00;55.70;;;;;;6067806;28;22186;-44
2022/07/26 09:00:14;;;;;;;1.08;0.20;;;25.10;55.60;;;;;;6040081;28;23246;-46
2022/07/26 09:03:24;;;;;;;2.13;0.40;;;25.40;55.60;;;;;;6068717;28;20148;-42
2022/07/26 09:06:26;;;;;;;0.97;0.20;;;25.20;55.30;;;;;;6088305;28;31752;-46
2022/07/26 09:09:30;;;;;;;0.63;0.20;;;24.90;55.20;;;;;;6098425;28;20044;-45
2022/07/26 09:12:32;;;;;;;1.23;0.20;;;25.10;55.10;;;;;;6086133;28;25207;-42
2022/07/26 09:15:34;;;;;;;0.63;0.20;;;25.30;54.70;;;;;;6072818;28;27744;-41
2022/07/26 09:18:36;;;;;;;0.57;0.22;;;25.60;55.00;;;;;;6121329;28;20048;-42
2022/07/26 09:21:39;;;;;;;0.47;0.20;;;24.90;54.00;;;;;;6133650;28;22162;-46
2022/07/26 09:24:42;;;;;;;0.40;0.15;;;24.70;53.90;;;;;;6099541;28;31153;-46
2022/07/26 09:27:44;;;;;;;0.32;0.13;;;25.10;53.80;;;;;;6098245;28;20063;-44
2022/07/26 09:30:52;;;;;;;0.98;0.30;;;25.10;53.60;;;;;;6110737;28;26418;-42
2022/07/26 09:33:53;;;;;;;0.68;0.20;;;25.00;53.20;;;;;;6111178;28;22975;-44
2022/07/26 09:36:55;;;;;;;2.42;0.32;;;24.90;53.00;;;;;;6096896;28;24795;-43
2022/07/26 09:39:59;;;;;;;0.20;0.20;;;25.10;53.00;;;;;;6104713;28;22632;-44
2022/07/26 09:43:04;;;;;;;0.38;0.20;;;25.10;53.00;;;;;;6095299;28;21663;-44
2022/07/26 09:46:06;;;;;;;0.32;0.20;;;25.20;52.90;;;;;;6081882;28;29614;-43
2022/07/26 09:49:16;;;;;;;0.65;0.32;;;25.00;52.70;;;;;;6116435;28;20908;-50
2022/07/26 09:52:20;;;;;;;0.30;0.20;;;25.10;52.40;;;;;;6127599;28;20044;-45
2022/07/26 09:55:22;;;;;;;0.30;0.20;;;25.00;52.20;;;;;;6063028;28;21446;-50
2022/07/26 09:58:28;;;;;;;0.28;0.22;;;25.30;51.80;;;;;;6106906;28;20036;-42
2022/07/26 10:01:30;;;;;;;0.40;0.20;;;25.10;52.10;;;;;;6091620;28;20036;-42
2022/07/26 10:04:32;;;;;;;0.47;0.20;;;25.10;51.80;;;;;;6105172;28;20140;-43
2022/07/26 10:07:34;;;;;;;0.98;0.30;;;24.70;51.90;;;;;;6107675;28;20046;-47
2022/07/26 10:10:40;;;;;;;1.75;0.20;;;25.10;51.70;;;;;;6081970;28;20052;-42
2022/07/26 10:13:41;;;;;;;0.52;0.20;;;25.00;51.50;;;;;;6085874;28;28301;-45
2022/07/26 10:16:43;;;;;;;0.50;0.20;;;24.80;51.70;;;;;;6018259;28;37962;-45
2022/07/26 10:19:45;;;;;;;1.13;0.40;;;25.10;51.30;;;;;;6104636;28;32104;-44
2022/07/26 10:22:49;;;;;;;0.80;0.38;;;25.10;51.10;;;;;;6100346;28;20033;-42
2022/07/26 10:25:51;;;;;;;1.30;0.30;;;25.10;51.10;;;;;;6076521;28;22585;-45
2022/07/26 10:28:52;;;;;;;1.23;0.30;;;25.10;50.60;;;;;;6119439;28;20372;-43
2022/07/26 10:32:14;;;;;;;0.75;0.40;;;25.00;50.80;;;;;;6120140;28;20845;-44
2022/07/26 10:35:31;;;;;;;4.35;0.30;;;25.40;50.80;;;;;;6083406;28;21618;-44
2022/07/26 10:38:32;;;;;;;0.88;0.30;;;25.50;50.80;;;;;;6083608;28;22627;-43
2022/07/26 10:41:39;;;;;;;0.57;0.20;;;24.80;50.40;;;;;;6101933;28;29390;-44
2022/07/26 10:44:44;;;;;;;0.80;0.30;;;24.70;50.10;;;;;;6074751;28;21798;-44
2022/07/26 10:48:14;;;;;;;1.45;0.40;;;25.10;50.30;;;;;;6125606;28;20208;-42
2022/07/26 10:51:25;;;;;;;2.03;0.40;;;25.10;50.30;;;;;;6126846;28;20044;-42
2022/07/26 10:54:30;;;;;;;0.80;0.32;;;25.00;50.30;;;;;;6101187;28;20555;-46
2022/07/26 10:57:34;;;;;;;2.33;0.30;;;24.70;50.30;;;;;;6129581;28;20348;-43
2022/07/26 11:00:36;;;;;;;0.70;0.40;;;24.70;50.10;;;;;;6102676;28;28623;-44
2022/07/26 11:03:38;;;;;;;1.58;0.30;;;25.00;50.60;;;;;;6118428;28;21115;-47
2022/07/26 11:06:40;;;;;;;1.95;0.50;;;24.80;49.80;;;;;;6085107;28;20569;-42
2022/07/26 11:09:42;;;;;;;2.75;0.30;;;25.10;50.20;;;;;;6132612;28;21092;-44
2022/07/26 11:12:44;;;;;;;1.20;0.50;;;25.00;50.20;;;;;;6139176;28;20134;-44
2022/07/26 11:15:47;;;;;;;0.93;0.30;;;24.90;50.20;;;;;;6129596;28;25230;-46
2022/07/26 11:18:50;;;;;;;1.33;0.43;;;24.80;50.30;;;;;;6089922;28;30468;-43
2022/07/26 11:21:54;;;;;;;3.45;0.50;;;25.20;50.70;;;;;;6147605;28;20759;-45
2022/07/26 11:24:56;;;;;;;3.17;0.40;;;24.90;50.50;;;;;;6104938;28;20037;-44
2022/07/26 11:27:59;;;;;;;2.13;0.45;;;24.60;50.40;;;;;;6127379;28;20471;-41
2022/07/26 11:31:05;;;;;;;2.78;0.68;;;24.80;50.50;;;;;;6122767;28;20312;-44
2022/07/26 11:34:15;;;;;;;1.67;0.30;;;24.60;50.50;;;;;;6143167;28;20036;-43
2022/07/26 11:37:17;;;;;;;1.70;0.40;;;25.00;50.30;;;;;;6096617;28;25694;-45
2022/07/26 11:40:42;;;;;;;2.95;0.40;;;24.70;50.00;;;;;;6144181;28;21674;-43
2022/07/26 11:43:44;;;;;;;1.63;0.50;;;24.90;50.20;;;;;;6089070;28;20044;-45
2022/07/26 11:46:46;;;;;;;0.70;0.25;;;24.80;50.00;;;;;;6126411;28;20178;-45
2022/07/26 11:49:49;;;;;;;3.13;0.50;;;25.10;50.10;;;;;;6128570;28;26379;-43
2022/07/26 11:53:20;;;;;;;2.60;0.40;;;24.90;49.90;;;;;;6104243;28;20078;-45
2022/07/26 11:56:22;;;;;;;2.42;0.75;;;25.10;49.40;;;;;;6106997;28;20036;-42
2022/07/26 11:59:26;;;;;;;2.20;0.50;;;24.90;49.70;;;;;;6072660;28;20043;-44
2022/07/26 12:02:29;;;;;;;1.88;0.30;;;25.00;49.60;;;;;;6088537;28;20048;-45
2022/07/26 12:05:32;;;;;;;2.30;0.20;;;25.10;49.70;;;;;;6100716;28;23442;-43
2022/07/26 12:08:43;;;;;;;3.22;0.50;;;25.00;49.60;;;;;;6118453;28;20041;-47
2022/07/26 12:11:46;;;;;;;1.83;0.55;;;24.50;49.00;;;;;;6078001;28;20055;-42
2022/07/26 12:14:56;;;;;;;0.60;0.30;;;25.00;49.20;;;;;;6101615;28;28697;-42
2022/07/26 12:17:58;;;;;;;1.75;0.30;;;24.50;48.70;;;;;;6048847;28;29840;-45
2022/07/26 12:21:02;;;;;;;2.10;0.40;;;25.20;49.10;;;;;;6129304;28;20048;-44
2022/07/26 12:24:09;;;;;;;2.20;0.20;;;25.00;48.90;;;;;;6091272;28;20080;-44
2022/07/26 12:27:15;;;;;;;0.73;0.30;;;25.10;48.90;;;;;;6080712;28;20938;-46
2022/07/26 12:30:16;;;;;;;0.68;0.20;;;24.80;48.70;;;;;;6074974;28;20133;-44
2022/07/26 12:33:18;;;;;;;0.40;0.10;;;24.90;49.10;;;;;;6081025;28;20056;-41
2022/07/26 12:36:22;;;;;;;0.75;0.15;;;25.10;48.90;;;;;;6098617;28;20241;-42
2022/07/26 12:39:30;;;;;;;0.85;0.20;;;25.10;48.60;;;;;;6102521;28;20044;-44
2022/07/26 12:42:34;;;;;;;0.45;0.30;;;25.10;48.80;;;;;;6104477;28;20040;-43
2022/07/26 12:45:39;;;;;;;0.40;0.20;;;24.80;48.50;;;;;;6070058;28;22857;-47
2022/07/26 12:48:44;;;;;;;0.73;0.30;;;24.70;48.50;;;;;;6112511;28;20083;-42
2022/07/26 12:51:46;;;;;;;0.30;0.20;;;25.20;48.50;;;;;;6130476;28;20048;-43
2022/07/26 12:54:50;;;;;;;0.70;0.30;;;25.10;48.50;;;;;;6079978;28;23400;-44
2022/07/26 12:57:51;;;;;;;0.22;0.15;;;25.30;48.60;;;;;;6027799;28;20052;-45
2022/07/26 13:00:57;;;;;;;0.32;0.20;;;25.10;48.40;;;;;;6078831;28;20039;-42
2022/07/26 13:03:59;;;;;;;0.50;0.10;;;25.10;47.80;;;;;;6045857;28;22231;-45
2022/07/26 13:07:01;;;;;;;0.60;0.20;;;25.10;48.30;;;;;;6062777;28;22694;-41
2022/07/26 13:10:05;;;;;;;0.30;0.20;;;24.60;47.80;;;;;;6049764;28;20135;-45
2022/07/26 13:13:26;;;;;;;0.28;0.17;;;25.20;47.90;;;;;;6041453;28;23532;-41
2022/07/26 13:16:28;;;;;;;0.40;0.10;;;25.00;47.70;;;;;;6055591;28;22848;-41
2022/07/26 13:19:30;;;;;;;0.25;0.13;;;25.40;48.00;;;;;;6062355;28;20040;-45
2022/07/26 13:22:32;;;;;;;0.20;0.20;;;25.30;47.70;;;;;;6035702;28;23649;-46
2022/07/26 13:25:35;;;;;;;0.55;0.30;;;24.90;47.70;;;;;;6109377;28;24739;-43
2022/07/26 13:28:41;;;;;;;0.52;0.10;;;25.10;47.40;;;;;;6075063;28;24080;-43
2022/07/26 13:31:43;;;;;;;0.55;0.20;;;25.10;47.50;;;;;;6101150;28;20126;-45
2022/07/26 13:34:45;;;;;;;0.43;0.30;;;25.70;47.70;;;;;;6099132;28;20302;-43
2022/07/26 13:37:46;;;;;;;1.38;0.40;;;25.30;47.60;;;;;;6094234;28;20045;-44
2022/07/26 13:40:49;;;;;;;0.40;0.20;;;25.30;47.30;;;;;;6094747;28;20043;-44
2022/07/26 13:43:52;;;;;;;0.22;0.15;;;25.20;47.20;;;;;;6077313;28;20048;-42
2022/07/26 13:46:54;;;;;;;0.85;0.22;;;25.10;47.00;;;;;;6091124;28;20036;-45
2022/07/26 13:49:56;;;;;;;0.98;0.30;;;25.10;46.90;;;;;;6080423;28;20066;-42
2022/07/26 13:52:57;;;;;;;1.17;0.30;;;25.30;47.30;;;;;;6102804;28;20058;-43
2022/07/26 13:55:59;;;;;;;0.65;0.25;;;24.90;47.20;;;;;;6082612;28;27948;-44
2022/07/26 13:59:02;;;;;;;1.60;0.28;;;25.30;47.10;;;;;;6087353;28;20037;-46
2022/07/26 14:02:03;;;;;;;0.25;0.22;;;25.00;47.20;;;;;;6059466;28;20163;-44
2022/07/26 14:05:06;;;;;;;1.05;0.10;;;25.00;46.90;;;;;;6063934;28;21214;-42
2022/07/26 14:08:07;;;;;;;0.43;0.20;;;25.10;47.10;;;;;;6081853;28;31826;-45
2022/07/26 14:11:10;;;;;;;0.28;0.20;;;25.00;46.90;;;;;;6069660;28;20241;-43
2022/07/26 14:14:12;;;;;;;0.90;0.30;;;25.20;47.10;;;;;;6085968;28;21185;-45
2022/07/26 14:17:17;;;;;;;2.22;0.30;;;25.40;47.20;;;;;;6087056;28;30562;-45
2022/07/26 14:20:19;;;;;;;0.38;0.20;;;25.30;47.10;;;;;;6084484;28;20036;-42
2022/07/26 14:23:22;;;;;;;6.22;0.70;;;25.20;46.60;;;;;;6071647;28;20040;-43
2022/07/26 14:26:25;;;;;;;1.85;0.32;;;25.10;46.90;;;;;;6054975;28;20109;-45
2022/07/26 14:29:28;;;;;;;2.22;0.50;;;25.30;46.90;;;;;;6053060;28;20723;-43
2022/07/26 14:32:30;;;;;;;2.88;0.50;;;25.30;47.10;;;;;;6086827;28;20044;-44
2022/07/26 14:35:31;;;;;;;2.45;0.50;;;25.40;46.90;;;;;;6054364;28;24807;-42
2022/07/26 14:38:33;;;;;;;2.13;0.45;;;25.50;46.90;;;;;;6054371;28;24638;-42
2022/07/26 14:41:36;;;;;;;0.82;0.30;;;25.10;46.70;;;;;;6099081;28;21060;-43
2022/07/26 14:44:37;;;;;;;0.60;0.30;;;25.10;46.40;;;;;;6068212;28;21476;-41
2022/07/26 14:47:46;;;;;;;5.05;0.55;;;25.70;46.50;;;;;;6062598;28;23410;-44
2022/07/26 14:50:47;;;;;;;2.95;0.50;;;25.40;46.50;;;;;;6136851;28;20113;-42
2022/07/26 14:54:11;;;;;;;1.65;0.32;;;25.30;46.30;;;;;;6097607;28;20254;-41
2022/07/26 14:57:14;;;;;;;0.38;0.20;;;26.00;46.80;;;;;;6084383;28;20474;-46
2022/07/26 15:00:17;;;;;;;2.00;0.38;;;25.40;46.20;;;;;;6077728;28;20651;-42
2022/07/26 15:03:19;;;;;;;1.08;0.40;;;25.20;46.00;;;;;;6144378;28;20040;-40
2022/07/26 15:06:21;;;;;;;0.38;0.15;;;25.50;46.10;;;;;;6127196;28;20045;-42
2022/07/26 15:09:22;;;;;;;0.40;0.30;;;25.30;45.80;;;;;;6104558;28;20692;-41
2022/07/26 15:12:24;;;;;;;1.58;0.35;;;25.90;46.20;;;;;;6079782;28;21908;-46
2022/07/26 15:15:27;;;;;;;1.10;0.40;;;25.50;45.80;;;;;;6090440;28;20120;-43
2022/07/26 15:18:29;;;;;;;1.38;0.20;;;25.90;46.20;;;;;;6066201;28;20571;-45
2022/07/26 15:21:30;;;;;;;0.43;0.10;;;25.40;46.20;;;;;;6083032;28;20961;-43
2022/07/26 15:24:32;;;;;;;0.82;0.20;;;25.50;46.20;;;;;;6101122;28;20593;-43
2022/07/26 15:27:41;;;;;;;1.30;0.10;;;25.90;46.70;;;;;;6042411;28;29653;-44
2022/07/26 15:30:43;;;;;;;0.25;0.10;;;25.50;46.40;;;;;;6016975;28;23240;-43
2022/07/26 15:33:45;;;;;;;0.77;0.20;;;25.60;46.50;;;;;;6049627;28;22270;-42
2022/07/26 15:36:46;;;;;;;0.95;0.10;;;25.40;46.40;;;;;;6098988;28;20086;-44
2022/07/26 15:39:48;;;;;;;0.10;0.10;;;25.50;46.50;;;;;;6098061;28;20165;-42
2022/07/26 15:42:53;;;;;;;0.10;0.10;;;25.50;46.60;;;;;;6104922;28;20284;-44
2022/07/26 15:45:56;;;;;;;0.40;0.10;;;25.30;46.30;;;;;;6121421;28;22195;-41
2022/07/26 15:48:58;;;;;;;0.17;0.13;;;25.90;46.90;;;;;;6139938;28;20044;-40
2022/07/26 15:52:00;;;;;;;0.13;0.10;;;25.00;46.20;;;;;;6125033;28;20084;-43
2022/07/26 15:55:02;;;;;;;0.25;0.10;;;25.50;46.60;;;;;;6164977;28;20044;-43
2022/07/26 15:58:04;;;;;;;0.15;0.05;;;25.50;46.30;;;;;;6163553;28;20091;-43
2022/07/26 16:01:06;;;;;;;0.10;0.10;;;25.20;46.30;;;;;;6177492;28;20044;-41